TimeCDT,TemperatureF,Dew PointF,Humidity,Sea Level PressureIn,VisibilityMPH,Wind Direction,Wind SpeedMPH,Gust SpeedMPH,PrecipitationIn,Events,Conditions,WindDirDegrees,DateUTC
12:53 AM,35.1,32.0,89,29.83,5.0,North,23.0,27.6,0.01,,Overcast,10,2013-04-18 05:53:00
1:53 AM,35.1,30.9,85,29.85,10.0,North,19.6,26.5,0.00,,Overcast,10,2013-04-18 06:53:00
2:53 AM,34.0,30.9,89,29.87,4.0,North,11.5,-,0.00,,Overcast,10,2013-04-18 07:53:00
3:53 AM,33.1,30.9,92,29.83,6.0,North,17.3,-,0.01,Rain,Light Rain,360,2013-04-18 08:53:00
4:13 AM,33.8,30.2,87,29.77,5.0,NNE,21.9,27.6,0.02,Rain,Light Freezing Rain,20,2013-04-18 09:13:00
4:43 AM,33.8,30.2,87,29.77,9.0,North,20.7,-,0.04,Rain,Light Freezing Rain,10,2013-04-18 09:43:00
4:53 AM,33.1,30.0,89,29.77,10.0,NNE,20.7,-,0.05,Rain,Light Freezing Rain,20,2013-04-18 09:53:00
5:14 AM,33.8,30.2,87,29.71,10.0,North,21.9,29.9,0.00,,Overcast,10,2013-04-18 10:14:00
5:53 AM,33.1,30.0,89,29.71,10.0,NNE,20.7,34.5,0.00,,Overcast,20,2013-04-18 10:53:00
6:53 AM,33.1,30.0,89,29.73,10.0,North,19.6,28.8,N/A,,Overcast,10,2013-04-18 11:53:00
7:33 AM,33.8,30.2,87,29.70,9.0,North,17.3,27.6,0.01,Rain,Light Freezing Rain,10,2013-04-18 12:33:00
7:46 AM,33.8,30.2,87,29.68,8.0,North,19.6,28.8,0.01,Snow,Light Snow,10,2013-04-18 12:46:00
7:53 AM,33.1,30.0,89,29.72,8.0,North,20.7,27.6,0.01,Snow,Light Snow,10,2013-04-18 12:53:00
8:19 AM,33.8,30.2,87,29.69,2.0,North,17.3,-,0.01,Snow,Light Snow,360,2013-04-18 13:19:00
8:26 AM,33.8,30.2,87,29.70,1.0,North,13.8,-,0.02,Snow,Light Snow,360,2013-04-18 13:26:00
8:34 AM,32.0,30.2,93,29.69,0.5,North,16.1,-,0.02,Fog-Snow,Snow,10,2013-04-18 13:34:00
8:53 AM,32.0,30.0,92,29.74,0.8,North,13.8,-,0.04,,Overcast,360,2013-04-18 13:53:00
9:00 AM,32.0,30.2,93,29.70,1.0,North,15.0,-,0.01,,Overcast,360,2013-04-18 14:00:00
9:22 AM,32.0,30.2,93,29.72,0.8,North,11.5,-,0.04,,Overcast,350,2013-04-18 14:22:00
9:53 AM,32.0,30.0,92,29.75,0.5,NNW,16.1,-,0.11,Fog-Snow,Snow,340,2013-04-18 14:53:00
10:53 AM,32.0,30.0,92,29.73,0.5,NNW,20.7,28.8,0.09,Fog,Fog,340,2013-04-18 15:53:00
11:53 AM,32.0,30.0,92,29.71,0.8,NNW,23.0,-,0.09,,Overcast,340,2013-04-18 16:53:00
12:14 PM,32.0,30.2,93,29.67,0.2,NNW,21.9,34.5,0.04,Fog-Snow,Heavy Snow,340,2013-04-18 17:14:00
12:28 PM,32.0,30.2,93,29.66,0.5,NNW,23.0,34.5,0.07,Fog,Fog,340,2013-04-18 17:28:00
12:53 PM,32.0,30.0,92,29.69,0.5,NNW,27.6,33.4,0.09,Fog,Fog,340,2013-04-18 17:53:00
1:04 PM,32.0,28.4,87,29.65,0.5,NNW,28.8,33.4,0.01,Fog-Snow,Snow,340,2013-04-18 18:04:00
1:12 PM,32.0,28.4,87,29.65,0.8,NNW,24.2,32.2,0.02,Snow,Light Snow,340,2013-04-18 18:12:00
1:53 PM,32.0,28.9,88,29.68,0.8,NNW,29.9,35.7,0.04,Snow,Light Snow,340,2013-04-18 18:53:00
2:16 PM,32.0,30.2,93,29.64,0.5,NNW,21.9,-,0.03,Fog-Snow,Snow,330,2013-04-18 19:16:00
2:53 PM,33.1,30.0,89,29.68,0.5,NNW,24.2,34.5,0.04,Fog-Snow,Snow,330,2013-04-18 19:53:00
3:44 PM,33.8,30.2,87,29.64,0.8,NNW,26.5,34.5,0.03,Snow,Light Snow,330,2013-04-18 20:44:00
3:53 PM,33.1,28.9,85,29.68,0.5,NNW,25.3,34.5,0.03,Fog-Snow,Snow,330,2013-04-18 20:53:00
4:53 PM,33.1,28.9,85,29.69,0.5,NNW,25.3,36.8,0.02,Fog-Snow,Light Snow,330,2013-04-18 21:53:00
5:26 PM,33.8,28.4,81,29.66,0.5,NW,26.5,33.4,0.00,Fog-Snow,Light Snow,320,2013-04-18 22:26:00
5:53 PM,33.1,28.9,85,29.71,0.5,NW,27.6,34.5,0.01,Fog-Snow,Snow,320,2013-04-18 22:53:00
6:49 PM,32.0,28.4,87,29.68,0.8,NW,24.2,36.8,0.00,Snow,Light Snow,320,2013-04-18 23:49:00
6:53 PM,32.0,28.9,88,29.73,0.8,NW,26.5,35.7,0.00,Snow,Light Snow,320,2013-04-18 23:53:00
7:53 PM,32.0,28.9,88,29.74,0.8,NW,21.9,32.2,0.01,Snow,Light Snow,310,2013-04-19 00:53:00
8:00 PM,32.0,28.4,87,29.70,0.8,NW,23.0,32.2,0.00,Snow,Light Snow,320,2013-04-19 01:00:00
8:10 PM,32.0,28.4,87,29.70,0.8,NW,23.0,32.2,0.00,Snow,Light Snow,320,2013-04-19 01:10:00
8:14 PM,32.0,28.4,87,29.70,1.0,NW,21.9,32.2,0.00,Snow,Light Snow,320,2013-04-19 01:14:00
8:24 PM,32.0,28.4,87,29.71,2.0,NW,23.0,31.1,0.00,Snow,Light Snow,320,2013-04-19 01:24:00
9:10 PM,32.0,28.4,87,29.71,1.8,NW,21.9,28.8,N/A,Snow,Light Snow,310,2013-04-19 02:10:00
9:15 PM,32.0,28.4,87,29.72,2.0,NW,19.6,27.6,N/A,Snow,Light Snow,310,2013-04-19 02:15:00
9:35 PM,32.0,28.4,87,29.72,1.5,NW,21.9,28.8,N/A,Snow,Light Snow,310,2013-04-19 02:35:00
9:53 PM,32.0,28.0,85,29.77,1.8,NW,23.0,29.9,N/A,Snow,Light Snow,310,2013-04-19 02:53:00
10:19 PM,32.0,28.4,87,29.72,2.5,NW,21.9,29.9,N/A,Snow,Light Snow,320,2013-04-19 03:19:00
10:28 PM,32.0,28.4,87,29.72,3.0,NW,21.9,31.1,N/A,,Overcast,320,2013-04-19 03:28:00
10:33 PM,32.0,28.4,87,29.72,2.5,NW,25.3,32.2,N/A,,Overcast,320,2013-04-19 03:33:00
10:40 PM,32.0,28.4,87,29.72,2.5,NW,23.0,32.2,N/A,,Overcast,320,2013-04-19 03:40:00
10:48 PM,30.2,28.4,93,29.72,4.0,NW,18.4,32.2,N/A,,Overcast,320,2013-04-19 03:48:00
10:53 PM,30.9,28.0,89,29.76,3.0,NW,21.9,32.2,N/A,Snow,Light Snow,320,2013-04-19 03:53:00
10:56 PM,30.2,28.4,93,29.71,2.5,NW,23.0,32.2,N/A,Snow,Light Snow,320,2013-04-19 03:56:00
11:23 PM,30.2,26.6,86,29.71,3.0,NW,25.3,35.7,N/A,,Overcast,320,2013-04-19 04:23:00
11:53 PM,30.9,27.0,85,29.75,3.0,NW,19.6,28.8,N/A,Snow,Light Snow,320,2013-04-19 04:53:00